Airfield :







YOU CAN JOIN US ON...

 
LOGIN :

Register | Disclaimer

   EN    FR    IT 

 









Legend :    VFR   Marginal VFR   IFR   Intensive IFR   Very Intensive IFR
Visi :
Ceiling :
>= 8 km
>= 3000ft
5 to 8 km
1000 to 3000 ft
1500m to 5 km
500 to 1000 ft
800 to 1500m
200 to 500 ft
< 800m
< 200 ft
Symbols :   Thunderstorms  Fog  Heavy snow  Heavy precipitations  Wind > 20 kt






- Airport Elevation : 56 ft


KRKD - Knox County Regional

CURRENT METAR :
  • 200630Z AUTO 00000KT 10SM FEW012 SCT100 BKN110 08/08 A3030 RMK AO2

EXPIRED METARs :
  • 200556Z AUTO 00000KT 10SM OVC014 08/08 A3031 RMK AO2 SLP264 T00780078 10078 20050 58005
  • 200542Z AUTO 00000KT 10SM BKN016 OVC090 08/08 A3031 RMK AO2
  • 200456Z AUTO 00000KT 10SM FEW095 07/07 A3032 RMK AO2 SLP269 T00670067 401501006
  • 200356Z AUTO 00000KT 10SM OVC100 07/07 A3032 RMK AO2 SLP269 T00720067

TAF KRKD
Valid from the 20 at 06:00 until the 21 at 06:00 UTC


200552Z 2006/2106 00000KT P6SM BKN016 OVC090
FM201700 23006KT P6SM -SHRA OVC050
FM202100 26004KT 4SM BR OVC015
KZBW FIR / North America



MET'MAP, your aeronautical weather chart ! - Copyright ORBIFLY December 2007 - Disclaimer

ORBIFLY MET'MAP TEAM :

Programming & Development : Alexandra Zaïnal
Concept & original design : Baudouin d'Aumeries
Assistance for programming : Marc-Olivier Méhu
Technical & hardware support : Manuel Goepfert

Contact : metmap@orbifly.com




SOURCES & CREDITS :

   NOAA